createdAt,value
2023-02-18T00:00:03.514Z,9.22
2023-02-18T00:00:34.943Z,9.22
2023-02-18T00:01:07.191Z,9.27
2023-02-18T00:01:39.633Z,9.27
2023-02-18T00:02:10.774Z,9.27
2023-02-18T00:02:43.166Z,9.27
2023-02-18T00:03:05.796Z,9.27
2023-02-18T00:03:28.012Z,9.27
2023-02-18T00:04:03.411Z,9.27
2023-02-18T00:04:34.814Z,9.27
2023-02-18T00:05:07.174Z,9.27
2023-02-18T00:05:39.109Z,9.27
2023-02-18T00:06:11.167Z,9.27
2023-02-18T00:06:43.850Z,9.27
2023-02-18T00:07:06.058Z,9.27
2023-02-18T00:07:29.305Z,9.27
2023-02-18T00:08:07.357Z,9.27
2023-02-18T00:08:29.499Z,9.27
2023-02-18T00:09:07.072Z,9.27
2023-02-18T00:09:39.022Z,9.27
2023-02-18T00:10:10.613Z,9.27
2023-02-18T00:10:44.125Z,9.27
2023-02-18T00:11:05.776Z,9.27
2023-02-18T00:11:28.071Z,9.27
2023-02-18T00:12:03.015Z,9.27
2023-02-18T00:12:35.150Z,9.38
2023-02-18T00:13:06.806Z,9.38
2023-02-18T00:13:38.647Z,9.38
2023-02-18T00:14:04.698Z,9.38
2023-02-18T00:14:40.472Z,9.38
2023-02-18T00:15:11.672Z,9.38
2023-02-18T00:15:47.332Z,9.38
2023-02-18T00:16:10.002Z,9.38
2023-02-18T00:16:31.981Z,9.38
2023-02-18T00:17:06.838Z,9.38
2023-02-18T00:17:39.814Z,9.38
2023-02-18T00:18:13.086Z,9.38
2023-02-18T00:18:45.278Z,9.38
2023-02-18T00:19:06.957Z,9.38
2023-02-18T00:19:29.881Z,9.38
2023-02-18T00:20:03.236Z,9.38
2023-02-18T00:20:34.814Z,9.38
2023-02-18T00:21:06.876Z,9.38
2023-02-18T00:21:39.459Z,9.38
2023-02-18T00:22:10.679Z,9.38
2023-02-18T00:22:45.805Z,9.38
2023-02-18T00:23:06.692Z,9.38
2023-02-18T00:23:29.048Z,9.38
2023-02-18T00:24:03.545Z,9.38
2023-02-18T00:24:34.788Z,9.38
2023-02-18T00:25:07.235Z,9.38
2023-02-18T00:25:39.124Z,9.38
2023-02-18T00:26:11.513Z,9.38
2023-02-18T00:26:42.848Z,9.38
2023-02-18T00:27:05.492Z,9.38
2023-02-18T00:27:28.518Z,9.38
2023-02-18T00:28:02.824Z,9.38
2023-02-18T00:28:34.947Z,9.38
2023-02-18T00:29:06.770Z,9.38
2023-02-18T00:29:40.221Z,9.38
2023-02-18T00:30:11.917Z,9.38
2023-02-18T00:30:45.185Z,9.38
2023-02-18T00:31:06.538Z,9.38
2023-02-18T00:31:29.651Z,9.38
2023-02-18T00:32:03.425Z,9.38
2023-02-18T00:32:36.308Z,9.38
2023-02-18T00:33:07.428Z,9.38
2023-02-18T00:33:39.074Z,9.38
2023-02-18T00:34:10.886Z,9.38
2023-02-18T00:34:42.867Z,9.38
2023-02-18T00:35:05.833Z,9.38
2023-02-18T00:35:28.921Z,9.38
2023-02-18T00:36:02.784Z,9.38
2023-02-18T00:36:35.198Z,9.38
2023-02-18T00:37:06.584Z,9.38
2023-02-18T00:37:38.705Z,9.38
2023-02-18T00:38:10.802Z,9.38
2023-02-18T00:38:43.314Z,9.38
2023-02-18T00:39:06.260Z,9.38
2023-02-18T00:39:28.616Z,9.38
2023-02-18T00:40:03.461Z,9.38
2023-02-18T00:40:34.983Z,9.38
2023-02-18T00:41:07.125Z,9.38
2023-02-18T00:41:38.713Z,9.38
2023-02-18T00:42:12.249Z,9.38
2023-02-18T00:42:44.343Z,9.38
2023-02-18T00:43:05.711Z,9.38
2023-02-18T00:43:28.272Z,9.38
2023-02-18T00:44:03.468Z,9.38
2023-02-18T00:44:35.328Z,9.38
2023-02-18T00:45:06.826Z,9.38
2023-02-18T00:45:39.474Z,9.50
2023-02-18T00:46:10.997Z,9.38
2023-02-18T00:46:43.059Z,9.38
2023-02-18T00:47:05.782Z,9.38
2023-02-18T00:47:28.112Z,9.38
2023-02-18T00:48:03.878Z,9.38
2023-02-18T00:48:34.765Z,9.38
2023-02-18T00:49:06.997Z,9.38
2023-02-18T00:49:38.653Z,9.38
2023-02-18T00:50:10.903Z,9.38
2023-02-18T00:50:43.169Z,9.50
2023-02-18T00:51:05.530Z,9.50
2023-02-18T00:51:28.748Z,9.50
2023-02-18T00:52:02.585Z,9.50
2023-02-18T00:52:36.612Z,9.50
2023-02-18T00:53:06.912Z,9.50
2023-02-18T00:53:39.148Z,9.50
2023-02-18T00:54:11.293Z,9.50
2023-02-18T00:54:43.431Z,9.50
2023-02-18T00:55:05.895Z,9.50
2023-02-18T00:55:28.613Z,9.50
2023-02-18T00:56:03.419Z,9.50
2023-02-18T00:56:34.714Z,9.50
2023-02-18T00:57:07.293Z,9.50
2023-02-18T00:57:39.108Z,9.50
2023-02-18T00:58:10.802Z,9.50
2023-02-18T00:58:42.884Z,9.50
2023-02-18T00:59:05.664Z,9.61
2023-02-18T00:59:27.828Z,9.61
2023-02-18T01:00:03.102Z,9.61
2023-02-18T01:00:34.690Z,9.61
2023-02-18T01:01:07.610Z,9.61
2023-02-18T01:01:39.792Z,9.61
2023-02-18T01:02:10.991Z,9.61
2023-02-18T01:02:43.314Z,9.61
2023-02-18T01:03:06.031Z,9.61
2023-02-18T01:03:31.003Z,9.61
2023-02-18T01:04:03.308Z,9.61
2023-02-18T01:04:35.036Z,9.61
2023-02-18T01:05:07.966Z,9.61
2023-02-18T01:05:39.114Z,9.61
2023-02-18T01:06:11.716Z,9.61
2023-02-18T01:06:42.955Z,9.61
2023-02-18T01:07:05.481Z,9.72
2023-02-18T01:07:28.192Z,9.72
2023-02-18T01:08:03.186Z,9.72
2023-02-18T01:08:35.361Z,9.72
2023-02-18T01:09:06.565Z,9.72
2023-02-18T01:09:39.716Z,9.72
2023-02-18T01:10:10.669Z,9.72
2023-02-18T01:10:42.795Z,9.72
2023-02-18T01:11:05.424Z,9.72
2023-02-18T01:11:27.721Z,9.72
2023-02-18T01:12:03.398Z,9.72
2023-02-18T01:12:34.742Z,9.72
2023-02-18T01:13:06.997Z,9.72
2023-02-18T01:13:39.205Z,9.72
2023-02-18T01:14:10.966Z,9.72
2023-02-18T01:14:43.392Z,9.72
2023-02-18T01:15:06.463Z,9.72
2023-02-18T01:15:30.824Z,9.72
2023-02-18T01:16:03.451Z,9.77
2023-02-18T01:16:35.027Z,9.77
2023-02-18T01:17:06.642Z,9.77
2023-02-18T01:17:40.292Z,9.77
2023-02-18T01:18:10.781Z,9.77
2023-02-18T01:18:42.940Z,9.77
2023-02-18T01:19:05.876Z,9.77
2023-02-18T01:19:27.975Z,9.77
2023-02-18T01:20:03.066Z,9.77
2023-02-18T01:20:34.662Z,9.77
2023-02-18T01:21:06.790Z,9.77
2023-02-18T01:21:38.940Z,9.77
2023-02-18T01:22:11.824Z,9.77
2023-02-18T01:22:43.320Z,9.77
2023-02-18T01:23:05.821Z,9.77
2023-02-18T01:23:28.752Z,9.77
2023-02-18T01:24:03.024Z,9.77
2023-02-18T01:24:35.197Z,9.77
2023-02-18T01:25:06.901Z,9.77
2023-02-18T01:25:38.890Z,9.77
2023-02-18T01:26:11.856Z,9.77
2023-02-18T01:26:43.653Z,9.77
2023-02-18T01:27:06.504Z,9.77
2023-02-18T01:27:28.804Z,9.77
2023-02-18T01:28:04.643Z,9.77
2023-02-18T01:28:35.324Z,9.77
2023-02-18T01:29:06.922Z,9.77
2023-02-18T01:29:40.599Z,9.77
2023-02-18T01:30:17.219Z,9.77
2023-02-18T01:30:43.009Z,9.88
2023-02-18T01:31:05.715Z,9.88
2023-02-18T01:31:28.671Z,9.88
2023-02-18T01:32:02.986Z,9.88
2023-02-18T01:32:34.859Z,9.88
2023-02-18T01:33:06.781Z,9.88
2023-02-18T01:33:39.683Z,9.88
2023-02-18T01:34:12.373Z,9.88
2023-02-18T01:34:42.859Z,9.77
2023-02-18T01:35:05.640Z,9.77
2023-02-18T01:35:27.977Z,9.77
2023-02-18T01:36:02.858Z,9.77
2023-02-18T01:36:34.654Z,9.77
2023-02-18T01:37:06.688Z,9.77
2023-02-18T01:37:38.647Z,9.77
2023-02-18T01:38:10.748Z,9.88
2023-02-18T01:38:43.054Z,9.88
2023-02-18T01:39:05.933Z,9.88
2023-02-18T01:39:29.192Z,9.88
2023-02-18T01:40:02.868Z,9.88
2023-02-18T01:40:35.311Z,9.88
2023-02-18T01:41:06.566Z,9.88
2023-02-18T01:41:39.527Z,9.88
2023-02-18T01:42:10.536Z,9.88
2023-02-18T01:42:41.421Z,9.88
2023-02-18T01:43:12.392Z,9.88
2023-02-18T01:43:47.337Z,9.88
2023-02-18T01:44:09.751Z,9.88
2023-02-18T01:44:32.259Z,9.88
2023-02-18T01:45:07.104Z,9.88
2023-02-18T01:45:38.785Z,9.88
2023-02-18T01:46:11.797Z,9.88
2023-02-18T01:46:43.124Z,9.88
2023-02-18T01:47:05.521Z,9.88
2023-02-18T01:47:29.087Z,9.88
2023-02-18T01:48:02.955Z,9.88
2023-02-18T01:48:37.542Z,9.88
2023-02-18T01:49:06.677Z,9.88
2023-02-18T01:49:38.672Z,9.88
2023-02-18T01:50:10.582Z,9.88
2023-02-18T01:50:42.770Z,9.88
2023-02-18T01:51:05.355Z,9.88
2023-02-18T01:51:30.703Z,9.88
2023-02-18T01:52:02.837Z,9.88
2023-02-18T01:52:34.938Z,9.88
2023-02-18T01:53:06.708Z,9.88
2023-02-18T01:53:39.131Z,9.88
2023-02-18T01:54:11.839Z,9.88
2023-02-18T01:54:43.167Z,9.88
2023-02-18T01:55:05.471Z,9.88
2023-02-18T01:55:28.138Z,9.88
2023-02-18T01:56:02.621Z,9.88
2023-02-18T01:56:35.148Z,9.88
2023-02-18T01:57:07.237Z,9.88
2023-02-18T01:57:39.507Z,9.88
2023-02-18T01:58:10.819Z,9.88
2023-02-18T01:58:42.978Z,9.88
2023-02-18T01:59:05.550Z,9.88
2023-02-18T01:59:27.989Z,9.88
2023-02-18T02:00:03.136Z,9.88
2023-02-18T02:00:34.877Z,9.88
2023-02-18T02:01:07.211Z,9.88
2023-02-18T02:01:38.951Z,9.88
2023-02-18T02:02:11.133Z,9.88
2023-02-18T02:02:42.811Z,9.88
2023-02-18T02:03:05.856Z,9.88
2023-02-18T02:03:29.016Z,9.88
2023-02-18T02:04:02.886Z,9.88
2023-02-18T02:04:34.879Z,9.88
2023-02-18T02:05:07.608Z,9.88
2023-02-18T02:05:39.260Z,9.88
2023-02-18T02:06:10.667Z,9.88
2023-02-18T02:06:43.173Z,9.88
2023-02-18T02:07:05.544Z,9.88
2023-02-18T02:07:27.924Z,9.88
2023-02-18T02:08:04.126Z,9.88
2023-02-18T02:08:35.008Z,9.88
2023-02-18T02:09:06.895Z,9.88
2023-02-18T02:09:38.854Z,9.88
2023-02-18T02:10:11.293Z,9.88
2023-02-18T02:10:42.811Z,9.88
2023-02-18T02:11:05.392Z,9.88
2023-02-18T02:11:28.200Z,9.88
2023-02-18T02:12:02.744Z,9.88
2023-02-18T02:12:35.590Z,10.00
2023-02-18T02:13:06.648Z,9.88
2023-02-18T02:13:54.932Z,9.88
2023-02-18T02:14:17.539Z,9.88
2023-02-18T02:14:39.845Z,10.00
2023-02-18T02:15:11.267Z,9.88
2023-02-18T02:15:46.689Z,9.88
2023-02-18T02:16:10.103Z,9.88
2023-02-18T02:16:32.352Z,10.00
2023-02-18T02:17:06.522Z,10.00
2023-02-18T02:17:38.656Z,10.00
2023-02-18T02:18:10.524Z,10.00
2023-02-18T02:18:39.645Z,10.00
2023-02-18T02:19:11.631Z,10.00
2023-02-18T02:19:46.823Z,10.00
2023-02-18T02:20:09.580Z,10.00
2023-02-18T02:20:31.813Z,10.00
2023-02-18T02:21:06.958Z,10.00
2023-02-18T02:21:40.110Z,10.00
2023-02-18T02:22:10.624Z,10.00
2023-02-18T02:22:42.793Z,10.00
2023-02-18T02:23:05.795Z,10.00
2023-02-18T02:23:28.674Z,10.00
2023-02-18T02:24:02.685Z,10.00
2023-02-18T02:24:34.628Z,10.00
2023-02-18T02:25:06.677Z,10.00
2023-02-18T02:25:38.655Z,10.00
2023-02-18T02:26:10.754Z,10.00
2023-02-18T02:26:42.527Z,10.00
2023-02-18T02:27:06.981Z,10.00
2023-02-18T02:27:27.852Z,10.00
2023-02-18T02:28:02.813Z,10.00
2023-02-18T02:28:34.740Z,10.00
2023-02-18T02:29:06.809Z,10.00
2023-02-18T02:29:41.156Z,10.00
2023-02-18T02:30:10.979Z,10.00
2023-02-18T02:30:39.765Z,10.00
2023-02-18T02:31:11.396Z,10.11
2023-02-18T02:31:46.773Z,10.11
2023-02-18T02:32:09.608Z,10.11
2023-02-18T02:32:32.034Z,10.11
2023-02-18T02:33:06.633Z,10.11
2023-02-18T02:33:38.548Z,10.11
2023-02-18T02:34:10.657Z,10.11
2023-02-18T02:34:43.258Z,10.11
2023-02-18T02:35:06.096Z,10.11
2023-02-18T02:35:28.356Z,10.11
2023-02-18T02:36:04.166Z,10.11
2023-02-18T02:36:34.929Z,10.11
2023-02-18T02:37:06.665Z,10.11
2023-02-18T02:37:38.475Z,10.11
2023-02-18T02:38:10.584Z,10.00
2023-02-18T02:38:42.879Z,10.00
2023-02-18T02:39:05.829Z,10.00
2023-02-18T02:39:27.971Z,10.00
2023-02-18T02:40:04.634Z,10.00
2023-02-18T02:40:34.647Z,10.00
2023-02-18T02:41:06.593Z,10.00
2023-02-18T02:41:38.611Z,10.00
2023-02-18T02:42:10.473Z,10.00
2023-02-18T02:42:42.661Z,10.00
2023-02-18T02:43:07.241Z,10.00
2023-02-18T02:43:27.885Z,10.00
2023-02-18T02:44:03.244Z,10.00
2023-02-18T02:44:34.770Z,10.00
2023-02-18T02:45:06.620Z,10.00
2023-02-18T02:45:38.710Z,10.00
2023-02-18T02:46:11.049Z,10.00
2023-02-18T02:46:42.758Z,10.00
2023-02-18T02:47:05.956Z,10.00
2023-02-18T02:47:28.023Z,9.88
2023-02-18T02:48:02.629Z,9.88
2023-02-18T02:48:34.635Z,10.00
2023-02-18T02:49:06.823Z,10.00
2023-02-18T02:49:38.619Z,9.88
2023-02-18T02:50:10.575Z,9.88
2023-02-18T02:50:42.638Z,9.88
2023-02-18T02:51:06.354Z,9.88
2023-02-18T02:51:28.122Z,9.88
2023-02-18T02:52:02.727Z,9.88
2023-02-18T02:52:34.627Z,9.88
2023-02-18T02:53:08.369Z,9.88
2023-02-18T02:53:38.840Z,9.88
2023-02-18T02:54:10.633Z,9.88
2023-02-18T02:54:42.558Z,9.88
2023-02-18T02:55:07.052Z,9.88
2023-02-18T02:55:27.710Z,9.88
2023-02-18T02:56:02.613Z,9.88
2023-02-18T02:56:34.530Z,9.88
2023-02-18T02:57:07.675Z,9.88
2023-02-18T02:57:38.622Z,9.88
2023-02-18T02:58:10.626Z,9.88
2023-02-18T02:58:42.494Z,9.88
2023-02-18T02:59:07.854Z,9.88
2023-02-18T02:59:27.866Z,9.88
2023-02-18T03:00:02.582Z,9.88
2023-02-18T03:00:34.885Z,9.88
2023-02-18T03:01:08.788Z,9.88
2023-02-18T03:01:38.714Z,9.88
2023-02-18T03:02:10.777Z,9.88
2023-02-18T03:02:43.080Z,9.88
2023-02-18T03:03:09.585Z,9.88
2023-02-18T03:03:46.954Z,9.88
2023-02-18T03:04:09.758Z,9.88
2023-02-18T03:04:32.254Z,9.88
2023-02-18T03:05:08.814Z,9.88
2023-02-18T03:05:38.511Z,9.88
2023-02-18T03:06:10.933Z,9.88
2023-02-18T03:06:42.890Z,9.88
2023-02-18T03:07:05.465Z,9.88
2023-02-18T03:07:28.006Z,9.88
2023-02-18T03:08:02.659Z,9.88
2023-02-18T03:08:34.572Z,9.88
2023-02-18T03:09:08.839Z,9.88
2023-02-18T03:09:38.779Z,9.88
2023-02-18T03:10:10.707Z,9.88
2023-02-18T03:10:42.502Z,9.88
2023-02-18T03:11:11.443Z,9.88
2023-02-18T03:11:48.048Z,9.88
2023-02-18T03:12:10.342Z,9.88
2023-02-18T03:12:33.176Z,9.88
2023-02-18T03:13:07.894Z,9.88
2023-02-18T03:13:39.216Z,9.88
2023-02-18T03:14:10.673Z,9.88
2023-02-18T03:14:39.964Z,9.88
2023-02-18T03:15:11.476Z,9.88
2023-02-18T03:15:48.142Z,9.88
2023-02-18T03:16:10.915Z,9.88
2023-02-18T03:16:32.948Z,9.88
2023-02-18T03:17:07.680Z,9.88
2023-02-18T03:17:38.704Z,9.88
2023-02-18T03:18:10.878Z,9.88
2023-02-18T03:18:42.895Z,9.88
2023-02-18T03:19:05.861Z,9.88
2023-02-18T03:19:28.029Z,9.88
2023-02-18T03:20:08.499Z,9.88
2023-02-18T03:20:35.200Z,9.88
2023-02-18T03:21:08.129Z,9.88
2023-02-18T03:21:40.008Z,9.88
2023-02-18T03:22:11.414Z,9.88
2023-02-18T03:22:43.177Z,9.88
2023-02-18T03:23:06.091Z,9.88
2023-02-18T03:23:31.306Z,10.00
2023-02-18T03:24:03.512Z,10.00
2023-02-18T03:24:34.647Z,10.00
2023-02-18T03:25:06.648Z,10.00
2023-02-18T03:25:38.756Z,10.00
2023-02-18T03:26:12.335Z,10.00
2023-02-18T03:26:43.417Z,10.00
2023-02-18T03:27:06.392Z,10.00
2023-02-18T03:27:29.248Z,10.00
2023-02-18T03:28:02.782Z,10.00
2023-02-18T03:28:35.035Z,10.00
2023-02-18T03:29:07.687Z,10.00
2023-02-18T03:29:41.785Z,10.00
2023-02-18T03:30:14.760Z,10.00
2023-02-18T03:30:37.054Z,10.00
2023-02-18T03:31:13.312Z,10.00
2023-02-18T03:31:47.070Z,10.00
2023-02-18T03:32:10.597Z,10.00
2023-02-18T03:32:32.970Z,10.00
2023-02-18T03:33:06.482Z,10.00
2023-02-18T03:33:38.664Z,10.00
2023-02-18T03:34:10.503Z,10.00
2023-02-18T03:34:42.602Z,10.00
2023-02-18T03:35:05.310Z,10.00
2023-02-18T03:35:27.759Z,10.00
2023-02-18T03:36:02.684Z,10.00
2023-02-18T03:36:35.085Z,10.00
2023-02-18T03:37:06.530Z,10.00
2023-02-18T03:37:38.490Z,10.00
2023-02-18T03:38:10.669Z,10.00
2023-02-18T03:38:42.764Z,10.00
2023-02-18T03:39:05.935Z,10.00
2023-02-18T03:39:28.094Z,10.00
2023-02-18T03:40:02.730Z,10.00
2023-02-18T03:40:34.651Z,10.00
2023-02-18T03:41:06.781Z,10.00
2023-02-18T03:41:38.566Z,10.00
2023-02-18T03:42:10.619Z,10.00
2023-02-18T03:42:42.587Z,10.00
2023-02-18T03:43:05.262Z,10.00
2023-02-18T03:43:27.558Z,10.00
2023-02-18T03:44:02.707Z,10.00
2023-02-18T03:44:34.772Z,10.00
2023-02-18T03:45:12.246Z,10.00
2023-02-18T03:45:38.650Z,10.00
2023-02-18T03:46:10.826Z,10.00
2023-02-18T03:46:39.729Z,10.00
2023-02-18T03:47:11.287Z,10.00
2023-02-18T03:47:46.716Z,10.00
2023-02-18T03:48:09.256Z,10.00
2023-02-18T03:48:31.561Z,10.00
2023-02-18T03:49:06.644Z,10.00
2023-02-18T03:49:38.586Z,10.00
2023-02-18T03:50:10.458Z,10.00
2023-02-18T03:50:42.720Z,10.00
2023-02-18T03:51:05.335Z,10.00
2023-02-18T03:51:27.554Z,10.00
2023-02-18T03:52:02.730Z,10.00
2023-02-18T03:52:34.561Z,10.00
2023-02-18T03:53:06.571Z,10.00
2023-02-18T03:53:40.111Z,10.00
2023-02-18T03:54:10.452Z,10.00
2023-02-18T03:54:39.575Z,10.00
2023-02-18T03:55:11.426Z,10.00
2023-02-18T03:55:46.693Z,10.00
2023-02-18T03:56:10.210Z,10.00
2023-02-18T03:56:32.325Z,10.00
2023-02-18T03:57:06.607Z,10.00
2023-02-18T03:57:38.435Z,10.00
2023-02-18T03:58:10.834Z,10.00
2023-02-18T03:58:42.596Z,10.00
2023-02-18T03:59:05.185Z,10.00
2023-02-18T03:59:27.669Z,10.00
2023-02-18T04:00:02.595Z,10.00
2023-02-18T04:00:34.448Z,10.00
2023-02-18T04:01:06.571Z,10.00
2023-02-18T04:01:38.666Z,10.00
2023-02-18T04:02:10.615Z,10.00
2023-02-18T04:02:42.424Z,10.00
2023-02-18T04:03:06.954Z,10.00
2023-02-18T04:03:29.136Z,10.00
2023-02-18T04:04:02.698Z,10.00
2023-02-18T04:04:34.493Z,10.00
2023-02-18T04:05:06.675Z,10.00
2023-02-18T04:05:38.654Z,10.00
2023-02-18T04:06:10.773Z,10.00
2023-02-18T04:06:42.547Z,10.00
2023-02-18T04:07:05.137Z,10.00
2023-02-18T04:07:27.883Z,10.00
2023-02-18T04:08:03.167Z,10.00
2023-02-18T04:08:34.972Z,10.00
2023-02-18T04:09:06.459Z,10.00
2023-02-18T04:09:40.091Z,10.00
2023-02-18T04:10:10.601Z,10.00
2023-02-18T04:10:42.469Z,10.00
2023-02-18T04:11:05.468Z,10.00
2023-02-18T04:11:27.975Z,10.00
2023-02-18T04:12:02.710Z,10.00
2023-02-18T04:12:34.467Z,10.00
2023-02-18T04:13:06.836Z,10.00
2023-02-18T04:13:38.830Z,10.00
2023-02-18T04:14:10.816Z,10.00
2023-02-18T04:14:42.442Z,10.00
2023-02-18T04:15:05.822Z,9.88
2023-02-18T04:15:27.938Z,9.88
2023-02-18T04:16:02.517Z,10.00
2023-02-18T04:16:34.621Z,10.00
2023-02-18T04:17:06.620Z,10.00
2023-02-18T04:17:38.456Z,10.00
2023-02-18T04:18:10.528Z,10.00
2023-02-18T04:18:39.703Z,10.00
2023-02-18T04:19:11.583Z,10.00
2023-02-18T04:19:46.617Z,10.00
2023-02-18T04:20:09.528Z,10.00
2023-02-18T04:20:32.186Z,10.00
2023-02-18T04:21:06.767Z,10.00
2023-02-18T04:21:38.450Z,10.00
2023-02-18T04:22:10.453Z,10.00
2023-02-18T04:22:40.243Z,10.00
2023-02-18T04:23:11.331Z,10.00
2023-02-18T04:23:46.564Z,10.00
2023-02-18T04:24:10.324Z,10.00
2023-02-18T04:24:32.455Z,10.00
2023-02-18T04:25:06.668Z,10.00
2023-02-18T04:25:38.625Z,10.00
2023-02-18T04:26:11.036Z,10.00
2023-02-18T04:26:42.608Z,10.00
2023-02-18T04:27:06.528Z,10.00
2023-02-18T04:27:28.946Z,10.00
2023-02-18T04:28:02.837Z,10.00
2023-02-18T04:28:34.483Z,10.00
2023-02-18T04:29:06.516Z,10.00
2023-02-18T04:29:38.542Z,10.00
2023-02-18T04:30:10.752Z,10.00
2023-02-18T04:30:42.896Z,10.00
2023-02-18T04:31:05.755Z,10.00
2023-02-18T04:31:28.301Z,10.00
2023-02-18T04:32:02.603Z,10.00
2023-02-18T04:32:34.436Z,10.00
2023-02-18T04:33:06.636Z,10.00
2023-02-18T04:33:38.862Z,10.00
2023-02-18T04:34:10.568Z,10.00
2023-02-18T04:34:42.444Z,10.00
2023-02-18T04:35:05.328Z,10.00
2023-02-18T04:35:27.656Z,10.00
2023-02-18T04:36:02.606Z,9.88
2023-02-18T04:36:34.603Z,9.88
2023-02-18T04:37:06.548Z,9.88
2023-02-18T04:37:38.486Z,9.88
2023-02-18T04:38:10.662Z,9.88
2023-02-18T04:38:42.590Z,9.88
2023-02-18T04:39:05.583Z,9.88
2023-02-18T04:39:27.863Z,9.88
2023-02-18T04:40:02.606Z,9.88
2023-02-18T04:40:34.438Z,9.88
2023-02-18T04:41:06.448Z,9.88
2023-02-18T04:41:38.501Z,9.88
2023-02-18T04:42:10.830Z,9.88
2023-02-18T04:42:42.448Z,9.88
2023-02-18T04:43:05.230Z,9.88
2023-02-18T04:43:27.561Z,9.88
2023-02-18T04:44:02.662Z,9.88
2023-02-18T04:44:34.618Z,9.88
2023-02-18T04:45:06.662Z,9.88
2023-02-18T04:45:38.774Z,9.88
2023-02-18T04:46:10.933Z,9.88
2023-02-18T04:46:42.642Z,9.88
2023-02-18T04:47:05.680Z,9.88
2023-02-18T04:47:28.443Z,9.88
2023-02-18T04:48:02.771Z,9.88
2023-02-18T04:48:34.488Z,9.88
2023-02-18T04:49:06.545Z,9.88
2023-02-18T04:49:38.505Z,9.88
2023-02-18T04:50:10.517Z,9.88
2023-02-18T04:50:39.844Z,9.88
2023-02-18T04:51:11.267Z,9.88
2023-02-18T04:51:46.675Z,9.88
2023-02-18T04:52:09.810Z,9.88
2023-02-18T04:52:32.190Z,9.88
2023-02-18T04:53:06.501Z,9.88
2023-02-18T04:53:38.535Z,9.88
2023-02-18T04:54:10.522Z,9.88
2023-02-18T04:54:42.689Z,9.88
2023-02-18T04:55:05.765Z,9.88
2023-02-18T04:55:27.999Z,9.88
2023-02-18T04:56:02.457Z,9.88
2023-02-18T04:56:34.462Z,9.88
2023-02-18T04:57:06.573Z,9.88
2023-02-18T04:57:38.673Z,9.88
2023-02-18T04:58:10.412Z,9.88
2023-02-18T04:58:39.574Z,9.88
2023-02-18T04:59:11.304Z,9.88
2023-02-18T04:59:46.728Z,9.88
2023-02-18T05:00:14.857Z,9.88
2023-02-18T05:00:32.915Z,9.88
2023-02-18T05:01:13.207Z,9.88
2023-02-18T05:01:36.431Z,9.88
2023-02-18T05:02:10.793Z,9.88
2023-02-18T05:02:42.578Z,10.00
2023-02-18T05:03:05.310Z,10.00
2023-02-18T05:03:27.511Z,10.00
2023-02-18T05:04:03.209Z,10.00
2023-02-18T05:04:34.538Z,9.88
2023-02-18T05:05:06.871Z,10.00
2023-02-18T05:05:39.140Z,10.00
2023-02-18T05:06:11.774Z,9.88
2023-02-18T05:06:42.602Z,10.00
2023-02-18T05:07:05.292Z,10.00
2023-02-18T05:07:28.532Z,10.00
2023-02-18T05:08:03.986Z,10.00
2023-02-18T05:08:34.804Z,10.00
2023-02-18T05:09:06.390Z,10.00
2023-02-18T05:09:38.930Z,10.00
2023-02-18T05:10:11.340Z,10.00
2023-02-18T05:10:43.101Z,10.00
2023-02-18T05:11:05.664Z,10.00
2023-02-18T05:11:28.395Z,10.00
2023-02-18T05:12:03.803Z,10.00
2023-02-18T05:12:35.125Z,10.00
2023-02-18T05:13:06.934Z,10.00
2023-02-18T05:13:38.589Z,10.00
2023-02-18T05:14:11.504Z,10.00
2023-02-18T05:14:42.580Z,10.00
2023-02-18T05:15:05.674Z,10.00
2023-02-18T05:15:28.772Z,10.00
2023-02-18T05:16:03.711Z,10.00
2023-02-18T05:16:34.979Z,10.00
2023-02-18T05:17:06.777Z,10.00
2023-02-18T05:17:38.543Z,10.00
2023-02-18T05:18:10.579Z,10.00
2023-02-18T05:18:42.827Z,10.00
2023-02-18T05:19:05.616Z,10.00
2023-02-18T05:19:27.942Z,10.00
2023-02-18T05:20:03.093Z,10.00
2023-02-18T05:20:35.021Z,10.00
2023-02-18T05:21:12.573Z,10.00
2023-02-18T05:21:38.857Z,10.00
2023-02-18T05:22:11.866Z,10.00
2023-02-18T05:22:44.598Z,10.00
2023-02-18T05:23:07.418Z,10.00
2023-02-18T05:23:30.000Z,10.00
2023-02-18T05:24:02.768Z,10.00
2023-02-18T05:24:34.610Z,10.00
2023-02-18T05:25:07.039Z,10.00
2023-02-18T05:25:38.831Z,10.00
2023-02-18T05:26:10.896Z,10.00
2023-02-18T05:26:43.444Z,10.00
2023-02-18T05:27:06.186Z,10.00
2023-02-18T05:27:28.622Z,10.00
2023-02-18T05:28:03.458Z,10.00
2023-02-18T05:28:35.341Z,10.00
2023-02-18T05:29:07.237Z,10.00
2023-02-18T05:29:39.154Z,10.00
2023-02-18T05:30:11.545Z,10.00
2023-02-18T05:30:43.140Z,10.00
2023-02-18T05:31:05.604Z,10.00
2023-02-18T05:31:29.008Z,10.00
2023-02-18T05:32:03.951Z,10.00
2023-02-18T05:32:38.418Z,10.00
2023-02-18T05:33:06.714Z,10.00
2023-02-18T05:33:39.350Z,10.00
2023-02-18T05:34:11.520Z,10.00
2023-02-18T05:34:42.898Z,10.00
2023-02-18T05:35:05.376Z,10.00
2023-02-18T05:35:29.846Z,10.00
2023-02-18T05:36:03.361Z,10.00
2023-02-18T05:36:34.509Z,10.00
2023-02-18T05:37:06.565Z,10.00
2023-02-18T05:37:38.924Z,10.00
2023-02-18T05:38:11.313Z,10.00
2023-02-18T05:38:42.415Z,10.00
2023-02-18T05:39:05.404Z,10.00
2023-02-18T05:39:30.248Z,10.00
2023-02-18T05:40:02.812Z,10.00
2023-02-18T05:40:34.832Z,10.00
2023-02-18T05:41:06.487Z,10.00
2023-02-18T05:41:40.500Z,10.00
2023-02-18T05:42:11.227Z,10.00
2023-02-18T05:42:42.529Z,10.00
2023-02-18T05:43:05.471Z,10.00
2023-02-18T05:43:27.767Z,10.00
2023-02-18T05:44:02.688Z,10.00
2023-02-18T05:44:34.537Z,10.00
2023-02-18T05:45:07.524Z,10.00
2023-02-18T05:45:38.651Z,10.00
2023-02-18T05:46:13.747Z,10.00
2023-02-18T05:46:36.600Z,10.11
2023-02-18T05:47:11.731Z,10.11
2023-02-18T05:47:46.654Z,10.11
2023-02-18T05:48:09.581Z,10.11
2023-02-18T05:48:31.821Z,10.11
2023-02-18T05:49:06.523Z,10.11
2023-02-18T05:49:38.909Z,10.11
2023-02-18T05:50:10.539Z,10.11
2023-02-18T05:50:39.893Z,10.11
2023-02-18T05:51:11.301Z,10.11
2023-02-18T05:51:47.049Z,10.11
2023-02-18T05:52:09.991Z,10.11
2023-02-18T05:52:33.235Z,10.11
2023-02-18T05:53:10.713Z,10.11
2023-02-18T05:53:38.490Z,10.11
2023-02-18T05:54:10.484Z,10.11
2023-02-18T05:54:42.564Z,10.11
2023-02-18T05:55:05.230Z,10.11
2023-02-18T05:55:27.478Z,10.11
2023-02-18T05:56:02.477Z,10.11
2023-02-18T05:56:34.515Z,10.11
2023-02-18T05:57:06.641Z,10.11
2023-02-18T05:57:40.151Z,10.11
2023-02-18T05:58:10.391Z,10.11
2023-02-18T05:58:39.761Z,10.11
2023-02-18T05:59:11.249Z,10.11
2023-02-18T05:59:46.504Z,10.11
2023-02-18T06:00:10.006Z,10.11
2023-02-18T06:00:33.592Z,10.11
2023-02-18T06:01:06.609Z,10.11
2023-02-18T06:01:38.869Z,10.11
2023-02-18T06:02:10.438Z,10.11
2023-02-18T06:02:42.842Z,10.11
2023-02-18T06:03:06.751Z,10.11
2023-02-18T06:03:29.300Z,10.11
2023-02-18T06:04:02.589Z,10.11
2023-02-18T06:04:34.494Z,10.11
2023-02-18T06:05:06.601Z,10.11
2023-02-18T06:05:38.553Z,10.11
2023-02-18T06:06:11.468Z,10.11
2023-02-18T06:06:43.863Z,10.11
2023-02-18T06:07:05.586Z,10.11
2023-02-18T06:07:27.898Z,10.11
2023-02-18T06:08:02.729Z,10.11
2023-02-18T06:08:35.239Z,10.11
2023-02-18T06:09:06.483Z,10.11
2023-02-18T06:09:38.722Z,10.11
2023-02-18T06:10:10.530Z,10.11
2023-02-18T06:10:39.942Z,10.11
2023-02-18T06:11:11.189Z,10.11
2023-02-18T06:11:46.526Z,10.11
2023-02-18T06:12:09.216Z,10.11
2023-02-18T06:12:31.619Z,10.11
2023-02-18T06:13:06.761Z,10.11
2023-02-18T06:13:38.776Z,10.11
2023-02-18T06:14:10.639Z,10.11
2023-02-18T06:14:42.040Z,10.00
2023-02-18T06:15:11.579Z,10.00
2023-02-18T06:15:50.065Z,10.00
2023-02-18T06:16:09.674Z,10.00
2023-02-18T06:16:32.090Z,10.00
2023-02-18T06:17:06.825Z,10.00
2023-02-18T06:17:38.538Z,10.00
2023-02-18T06:18:10.472Z,10.00
2023-02-18T06:18:42.481Z,10.00
2023-02-18T06:19:05.245Z,10.00
2023-02-18T06:19:27.612Z,10.00
2023-02-18T06:20:02.415Z,10.00
2023-02-18T06:20:39.445Z,10.00
2023-02-18T06:21:09.978Z,10.00
2023-02-18T06:21:38.366Z,10.00
2023-02-18T06:22:07.416Z,10.00
2023-02-18T06:22:41.588Z,10.00
2023-02-18T06:23:11.796Z,10.00
2023-02-18T06:23:46.651Z,10.00
2023-02-18T06:24:09.183Z,10.00
2023-02-18T06:24:31.676Z,10.00
2023-02-18T06:25:06.512Z,10.00
2023-02-18T06:25:40.209Z,10.00
2023-02-18T06:26:11.152Z,10.00
2023-02-18T06:26:40.805Z,10.00
2023-02-18T06:27:11.575Z,10.00
2023-02-18T06:27:46.667Z,10.00
2023-02-18T06:28:09.120Z,10.00
2023-02-18T06:28:32.245Z,10.00
2023-02-18T06:29:07.598Z,10.00
2023-02-18T06:29:38.791Z,10.00
2023-02-18T06:30:14.674Z,10.00
2023-02-18T06:30:43.396Z,10.00
2023-02-18T06:31:05.817Z,10.00
2023-02-18T06:31:28.473Z,10.00
2023-02-18T06:32:02.685Z,10.00
2023-02-18T06:32:38.957Z,10.00